Portada
METAR-TAF:

METAR-TAF

Aeropuertos :

Aeropuerto de Londres-Heathrow

Londres-Heathrow, Inglaterra

latitud: 51-29N, longitud: 000-27W, altitud: 24 m

Observación

El informe se hizo hace 27 minutos, a las 02:20 UTC
Viento 4 kt del este-noreste
Temperatura 13°C
Humedad 72%
Presión 1035 hPa
Visibilidad 10 km o más

METAR: EGLL 280220Z AUTO 07004KT 9999 NCD 13/08 Q1035 NOSIG

Hora: 03:47 (02:47 UTC)

Pronóstico

El informe se hizo hace 3 horas y 54 minutos, a las 22:53 UTC
Pronóstico válido del 28 a las 00 UTC al 29 a las 06 UTC
Viento 8 kt del este
Visibilidad 10 km o más
sin nubes por debajo de 1500 m y sin presencia de cumulonimbus.

TAF: EGLL 272253Z 2800/2906 09008KT CAVOK

Observaciones y pronósticos meteorológicos de más de 4000 aeropuertos (mensajes METAR y TAF).

Los puntos amarillos y rojos representan las estaciones disponibles.

Ponga el ratón en el punto deseado para ver el nombre de la estación.

Haga clic para ver las observaciones y los pronósticos meteorológicos.

Para cambiar el mapa : haga clic en los botones verdes con una cruz de color negro para hacer un zoom, en el botón verde con un guión para alejar o en las flechas verdes para mapas adyacentes.


METAR-TAF: